Time;durP1;ratioP1;P1;durP2;ratioP2;P2;SDS_P1;SDS_P2;PMS_P1;PMS_P2;Temp;Humidity;BMP_temperature;BMP_pressure;BME280_temperature;BME280_humidity;BME280_pressure;Samples;Min_cycle;Max_cycle;Signal;HPM_P1;HPM_P2
2022/11/06 00:01:13;;;;;;;6.30;1.67;;;19.80;1.00;;;;;;4842364;29;20102;-50
2022/11/06 00:03:40;;;;;;;5.88;2.08;;;19.80;1.00;;;;;;4842768;29;20058;-48
2022/11/06 00:09:03;;;;;;;7.97;1.40;;;19.70;1.00;;;;;;4879560;29;20128;-51
2022/11/06 00:11:30;;;;;;;10.13;2.97;;;19.70;1.00;;;;;;4878810;29;20045;-48
2022/11/06 00:13:58;;;;;;;7.72;2.05;;;19.70;1.00;;;;;;4879946;29;20041;-47
2022/11/06 00:16:25;;;;;;;6.72;2.47;;;19.60;1.00;;;;;;4879539;29;20053;-50
2022/11/06 00:18:52;;;;;;;5.72;1.83;;;19.60;1.00;;;;;;4879465;29;20057;-49
2022/11/06 00:21:22;;;;;;;10.25;2.83;;;19.60;1.00;;;;;;4879515;29;20052;-53
2022/11/06 00:23:50;;;;;;;8.68;2.00;;;19.50;1.00;;;;;;4879412;29;20073;-51
2022/11/06 00:26:19;;;;;;;5.22;2.03;;;19.50;1.00;;;;;;4879443;29;20052;-51
2022/11/06 00:28:47;;;;;;;5.32;2.03;;;19.50;1.00;;;;;;4878976;29;20045;-47
2022/11/06 00:31:17;;;;;;;9.07;2.08;;;19.50;1.00;;;;;;4879245;29;20476;-51
2022/11/06 00:33:44;;;;;;;8.15;2.17;;;19.50;1.00;;;;;;4879583;29;20461;-47
2022/11/06 00:36:19;;;;;;;3.67;1.65;;;19.40;1.00;;;;;;4879336;29;20444;-50
2022/11/06 00:38:47;;;;;;;6.72;2.00;;;19.40;1.00;;;;;;4879255;29;20538;-50
2022/11/06 00:41:15;;;;;;;8.55;2.53;;;19.40;1.00;;;;;;4879582;29;20109;-48
2022/11/06 00:43:47;;;;;;;8.95;1.63;;;19.40;1.00;;;;;;4879067;29;20409;-49
2022/11/06 00:46:15;;;;;;;6.03;1.87;;;19.30;1.00;;;;;;4879247;29;20045;-47
2022/11/06 00:48:42;;;;;;;8.48;1.95;;;19.30;1.00;;;;;;4879088;29;20069;-49
2022/11/06 00:51:21;;;;;;;5.93;1.67;;;19.30;1.00;;;;;;4879503;29;20399;-47
2022/11/06 00:53:57;;;;;;;7.95;2.30;;;19.30;1.00;;;;;;4879237;29;20541;-48
2022/11/06 00:56:24;;;;;;;5.32;1.80;;;19.20;1.00;;;;;;4879125;29;20047;-49
2022/11/06 00:58:52;;;;;;;9.77;1.98;;;19.20;1.00;;;;;;4879277;29;20105;-49
2022/11/06 01:01:26;;;;;;;10.18;1.98;;;19.20;1.00;;;;;;4879279;29;20053;-49
2022/11/06 01:04:02;;;;;;;5.25;1.63;;;19.10;1.00;;;;;;4879536;29;20073;-49
2022/11/06 01:06:32;;;;;;;5.93;1.58;;;19.10;1.00;;;;;;4868665;29;20133;-52
2022/11/06 01:09:00;;;;;;;3.92;2.05;;;19.10;1.00;;;;;;4860271;29;20050;-51
2022/11/06 01:11:30;;;;;;;4.53;2.08;;;19.10;1.00;;;;;;4860571;29;20045;-51
2022/11/06 01:14:19;;;;;;;5.13;2.13;;;19.10;1.00;;;;;;4862810;29;20080;-52
2022/11/06 01:16:46;;;;;;;4.72;1.55;;;19.00;1.00;;;;;;4863133;29;20057;-50
2022/11/06 01:19:16;;;;;;;6.25;1.98;;;19.00;1.00;;;;;;4863802;29;20053;-49
2022/11/06 01:21:44;;;;;;;8.80;2.90;;;19.00;1.00;;;;;;4863990;29;20041;-51
2022/11/06 01:24:18;;;;;;;8.00;2.05;;;19.00;1.00;;;;;;4863824;29;20115;-51
2022/11/06 01:26:45;;;;;;;6.90;2.40;;;18.90;1.00;;;;;;4863940;29;20045;-48
2022/11/06 01:29:32;;;;;;;7.53;2.30;;;18.90;1.00;;;;;;4863232;29;20048;-51
2022/11/06 01:31:59;;;;;;;7.07;1.80;;;18.90;1.00;;;;;;4863806;29;20074;-51
2022/11/06 01:34:26;;;;;;;8.27;2.67;;;18.80;1.00;;;;;;4863567;29;20048;-53
2022/11/06 01:36:53;;;;;;;5.03;1.75;;;18.90;1.00;;;;;;4863758;29;20056;-51
2022/11/06 01:39:19;;;;;;;9.48;2.15;;;18.80;1.00;;;;;;4863363;29;20573;-53
2022/11/06 01:41:49;;;;;;;7.00;2.13;;;18.80;1.00;;;;;;4863727;29;20426;-53
2022/11/06 01:44:34;;;;;;;4.30;1.50;;;18.80;1.00;;;;;;4863226;29;20053;-52
2022/11/06 01:47:03;;;;;;;7.35;2.97;;;18.80;1.00;;;;;;4863803;29;20053;-49
2022/11/06 01:49:34;;;;;;;10.45;2.75;;;18.80;1.00;;;;;;4863124;29;20041;-49
2022/11/06 01:52:07;;;;;;;8.88;2.65;;;18.70;1.00;;;;;;4863878;29;20069;-49
2022/11/06 01:54:36;;;;;;;7.15;2.75;;;18.70;1.00;;;;;;4863930;29;20046;-50
2022/11/06 01:57:04;;;;;;;7.28;1.73;;;18.70;1.00;;;;;;4863441;29;20476;-52
2022/11/06 01:59:34;;;;;;;5.88;1.92;;;18.70;1.00;;;;;;4862844;29;20069;-49
2022/11/06 02:02:01;;;;;;;7.82;1.65;;;18.70;1.00;;;;;;4863432;29;20045;-47
2022/11/06 02:04:34;;;;;;;6.30;2.35;;;18.60;1.00;;;;;;4863029;29;20059;-47
2022/11/06 02:07:02;;;;;;;8.77;2.47;;;18.60;1.00;;;;;;4877993;29;20508;-47
2022/11/06 02:09:31;;;;;;;7.22;2.50;;;18.60;1.00;;;;;;4879604;29;20045;-52
2022/11/06 02:12:23;;;;;;;5.80;1.80;;;18.60;1.00;;;;;;4881680;29;20459;-52
2022/11/06 02:15:14;;;;;;;4.10;1.65;;;18.50;1.00;;;;;;4881528;29;20439;-48
2022/11/06 02:18:27;;;;;;;6.45;2.05;;;18.60;1.00;;;;;;4881665;29;20044;-52
2022/11/06 02:21:24;;;;;;;9.85;2.85;;;18.50;1.00;;;;;;4881342;29;20049;-49
2022/11/06 02:24:07;;;;;;;7.68;2.03;;;18.50;1.00;;;;;;4881207;29;20080;-50
2022/11/06 02:26:53;;;;;;;;;;;18.50;1.00;;;;;;4882013;29;20070;-48
2022/11/06 02:29:48;;;;;;;7.13;2.28;;;18.50;1.00;;;;;;4880939;29;19930;-49
2022/11/06 02:32:47;;;;;;;9.52;2.83;;;18.40;1.00;;;;;;4881164;29;20128;-48
2022/11/06 02:35:17;;;;;;;8.35;2.00;;;18.40;1.00;;;;;;4877818;29;20049;-47
2022/11/06 02:37:47;;;;;;;7.47;2.10;;;18.40;1.00;;;;;;4881360;29;20045;-47
2022/11/06 02:40:15;;;;;;;8.57;2.20;;;18.40;1.00;;;;;;4880655;29;20385;-49
2022/11/06 02:42:47;;;;;;;7.82;2.05;;;18.40;1.00;;;;;;4881656;29;20041;-49
2022/11/06 02:45:16;;;;;;;8.57;1.77;;;18.40;1.00;;;;;;4881364;29;20127;-47
2022/11/06 02:47:47;;;;;;;9.57;2.20;;;18.40;1.00;;;;;;4881447;29;20124;-51
2022/11/06 02:50:29;;;;;;;8.30;2.85;;;18.40;1.00;;;;;;4880611;29;20518;-47
2022/11/06 02:53:06;;;;;;;6.63;1.67;;;18.40;1.00;;;;;;4881187;29;20567;-48
2022/11/06 02:55:36;;;;;;;8.18;2.42;;;18.40;1.00;;;;;;4880776;29;20590;-49
2022/11/06 02:58:09;;;;;;;7.72;2.03;;;18.40;1.00;;;;;;4880715;29;20105;-50
2022/11/06 03:00:39;;;;;;;6.22;2.15;;;18.40;1.00;;;;;;4880687;29;20105;-49
2022/11/06 03:03:14;;;;;;;6.85;2.30;;;18.40;1.00;;;;;;4880614;29;20080;-51
2022/11/06 03:05:56;;;;;;;7.85;2.35;;;18.40;1.00;;;;;;4876081;29;20041;-50
2022/11/06 03:08:38;;;;;;;9.50;2.23;;;18.40;1.00;;;;;;4862030;29;20057;-48
2022/11/06 03:11:14;;;;;;;5.55;1.63;;;18.40;1.00;;;;;;4861980;29;20484;-50
2022/11/06 03:13:57;;;;;;;9.60;2.10;;;18.30;1.00;;;;;;4861931;29;20045;-51
2022/11/06 03:16:42;;;;;;;6.68;1.73;;;18.30;1.00;;;;;;4861902;29;20053;-47
2022/11/06 03:19:44;;;;;;;7.10;1.50;;;18.30;1.00;;;;;;4861636;29;20597;-48
2022/11/06 03:22:24;;;;;;;7.78;1.92;;;18.30;1.00;;;;;;4861799;29;20053;-46
2022/11/06 03:25:01;;;;;;;5.47;1.85;;;18.30;1.00;;;;;;4861818;29;20045;-47
2022/11/06 03:27:34;;;;;;;9.57;2.85;;;18.30;1.00;;;;;;4861873;29;20457;-48
2022/11/06 03:30:07;;;;;;;5.03;2.38;;;18.20;1.00;;;;;;4861569;29;20041;-47
2022/11/06 03:32:56;;;;;;;8.18;2.38;;;18.30;1.00;;;;;;4861714;29;20088;-48
2022/11/06 03:35:32;;;;;;;7.50;1.63;;;18.20;1.00;;;;;;4861114;29;20121;-48
2022/11/06 03:38:18;;;;;;;7.90;1.98;;;18.20;1.00;;;;;;4861959;29;20105;-48
2022/11/06 03:40:51;;;;;;;10.40;2.42;;;18.20;1.00;;;;;;4861825;29;20045;-45
2022/11/06 03:43:20;;;;;;;;;;;18.20;1.00;;;;;;4861766;29;20462;-47
2022/11/06 03:45:51;;;;;;;8.02;2.13;;;18.20;1.00;;;;;;4861477;29;19924;-48
2022/11/06 03:48:24;;;;;;;5.30;1.80;;;18.20;1.00;;;;;;4861313;29;20077;-51
2022/11/06 03:50:57;;;;;;;6.72;2.33;;;18.10;1.00;;;;;;4861554;29;20045;-48
2022/11/06 03:53:35;;;;;;;6.88;2.58;;;18.20;1.00;;;;;;4861260;29;20136;-50
2022/11/06 03:56:08;;;;;;;10.02;2.53;;;18.10;1.00;;;;;;4861647;29;20045;-49
2022/11/06 03:58:41;;;;;;;6.85;2.13;;;18.10;1.00;;;;;;4861148;29;20045;-52
2022/11/06 04:01:11;;;;;;;7.38;1.88;;;18.10;1.00;;;;;;4861552;29;20049;-50
2022/11/06 04:03:58;;;;;;;8.90;2.58;;;18.00;1.00;;;;;;4861130;29;20049;-53
2022/11/06 04:06:40;;;;;;;7.82;2.05;;;18.10;1.00;;;;;;4871332;29;20053;-49
2022/11/06 04:14:47;;;;;;;8.27;1.90;;;18.00;1.00;;;;;;4879470;29;20041;-52
2022/11/06 04:17:15;;;;;;;6.97;2.78;;;18.00;1.00;;;;;;4880082;29;20056;-51
2022/11/06 04:19:48;;;;;;;8.32;1.95;;;18.00;1.00;;;;;;4879340;29;20045;-51
2022/11/06 04:22:35;;;;;;;9.27;2.25;;;18.00;1.00;;;;;;4879515;29;20546;-50
2022/11/06 04:28:33;;;;;;;5.05;2.05;;;18.00;1.00;;;;;;4861792;29;20057;-49
2022/11/06 04:31:03;;;;;;;7.88;1.77;;;17.90;1.00;;;;;;4879231;29;20037;-51
2022/11/06 04:33:47;;;;;;;4.07;1.50;;;17.90;1.00;;;;;;4877529;29;20049;-49
2022/11/06 04:36:20;;;;;;;8.68;2.45;;;17.90;1.00;;;;;;4860958;29;20120;-48
2022/11/06 04:38:56;;;;;;;6.25;1.75;;;17.90;1.00;;;;;;4861013;29;20449;-49
2022/11/06 04:41:33;;;;;;;6.68;2.35;;;17.90;1.00;;;;;;4860803;29;20045;-48
2022/11/06 04:44:16;;;;;;;5.82;1.67;;;17.90;1.00;;;;;;4860909;29;20045;-47
2022/11/06 04:46:53;;;;;;;7.65;2.25;;;17.90;1.00;;;;;;4861187;29;20053;-47
2022/11/06 04:49:21;;;;;;;6.57;2.28;;;17.90;1.00;;;;;;4864199;29;20054;-51
2022/11/06 04:51:48;;;;;;;9.20;2.85;;;17.90;1.00;;;;;;4864500;29;20046;-52
2022/11/06 04:54:16;;;;;;;7.93;1.70;;;17.90;1.00;;;;;;4864308;29;20132;-51
2022/11/06 04:56:43;;;;;;;6.32;1.80;;;17.90;1.00;;;;;;4864425;29;20053;-52
2022/11/06 04:59:15;;;;;;;6.57;1.67;;;17.90;1.00;;;;;;4863916;29;20073;-55
2022/11/06 05:01:41;;;;;;;6.65;2.38;;;17.90;1.00;;;;;;4864537;29;20419;-50
2022/11/06 05:04:10;;;;;;;5.45;2.15;;;17.80;1.00;;;;;;4863984;29;20044;-53
2022/11/06 05:06:37;;;;;;;2.65;1.33;;;17.80;1.00;;;;;;4864441;29;20045;-54
2022/11/06 05:09:04;;;;;;;3.00;1.80;;;17.80;1.00;;;;;;4864063;29;20058;-53
2022/11/06 05:11:30;;;;;;;4.85;1.85;;;17.80;1.00;;;;;;4864190;29;20073;-51
2022/11/06 05:13:57;;;;;;;7.93;2.20;;;17.80;1.00;;;;;;4864389;29;20049;-52
2022/11/06 05:16:24;;;;;;;4.72;2.05;;;17.80;1.00;;;;;;4863992;29;20045;-50
2022/11/06 05:18:51;;;;;;;5.57;1.83;;;17.80;1.00;;;;;;4863782;29;20042;-51
2022/11/06 05:24:04;;;;;;;3.78;2.17;;;17.80;1.00;;;;;;4864327;29;20050;-53
2022/11/06 05:26:32;;;;;;;5.25;1.98;;;17.80;1.00;;;;;;4864266;29;20045;-53
2022/11/06 05:28:59;;;;;;;6.13;2.33;;;17.80;1.00;;;;;;4863547;29;20077;-53
2022/11/06 05:31:26;;;;;;;5.60;1.70;;;17.70;1.00;;;;;;4863666;29;20106;-52
2022/11/06 05:33:53;;;;;;;4.45;1.77;;;17.80;1.00;;;;;;4863697;29;20442;-54
2022/11/06 05:36:20;;;;;;;6.13;2.58;;;17.70;1.00;;;;;;4863718;29;20133;-52
2022/11/06 05:38:47;;;;;;;5.95;1.83;;;17.80;1.00;;;;;;4862131;29;20453;-51
2022/11/06 05:41:14;;;;;;;3.33;1.63;;;17.70;1.00;;;;;;4863713;29;20056;-52
2022/11/06 05:43:41;;;;;;;4.75;1.60;;;17.70;1.00;;;;;;4863527;29;20073;-52
2022/11/06 05:46:08;;;;;;;5.00;2.10;;;17.70;1.00;;;;;;4863427;29;20482;-50
2022/11/06 05:48:55;;;;;;;4.15;1.35;;;17.70;1.00;;;;;;4863330;29;20080;-49
2022/11/06 05:51:22;;;;;;;5.75;1.90;;;17.70;1.00;;;;;;4863364;29;20041;-53
2022/11/06 05:53:49;;;;;;;2.63;1.65;;;17.70;1.00;;;;;;4863395;29;20049;-51
2022/11/06 05:56:16;;;;;;;4.25;1.35;;;17.60;1.00;;;;;;4863054;29;20381;-54
2022/11/06 05:58:43;;;;;;;3.42;1.38;;;17.60;1.00;;;;;;4862309;29;20049;-53
2022/11/06 06:01:10;;;;;;;7.95;1.90;;;17.70;1.00;;;;;;4877498;29;20049;-49
2022/11/06 06:03:37;;;;;;;5.60;1.88;;;17.60;1.00;;;;;;4863522;29;20057;-49
2022/11/06 06:06:04;;;;;;;4.13;1.70;;;17.60;1.00;;;;;;4870667;29;20049;-53
2022/11/06 06:08:31;;;;;;;4.60;1.80;;;17.60;1.00;;;;;;4880241;29;20422;-50
2022/11/06 06:10:57;;;;;;;6.35;1.80;;;17.60;1.00;;;;;;4881593;29;20053;-47
2022/11/06 06:13:24;;;;;;;4.35;2.08;;;17.60;1.00;;;;;;4881754;29;20037;-51
2022/11/06 06:15:51;;;;;;;4.28;1.80;;;17.60;1.00;;;;;;4881811;29;20518;-50
2022/11/06 06:18:18;;;;;;;2.50;1.90;;;17.60;1.00;;;;;;4881363;29;20097;-51
2022/11/06 06:20:45;;;;;;;6.10;1.83;;;17.60;1.00;;;;;;4881433;29;20089;-49
2022/11/06 06:23:11;;;;;;;3.22;1.27;;;17.60;1.00;;;;;;4881525;29;20052;-52
2022/11/06 06:25:38;;;;;;;5.20;2.08;;;17.60;1.00;;;;;;4881433;29;20052;-53
2022/11/06 06:28:05;;;;;;;5.20;1.60;;;17.60;1.00;;;;;;4881289;29;20081;-52
2022/11/06 06:30:32;;;;;;;6.07;1.50;;;17.60;1.00;;;;;;4881282;29;20093;-49
2022/11/06 06:33:04;;;;;;;3.53;1.98;;;17.60;1.00;;;;;;4881292;29;20041;-52
2022/11/06 06:35:31;;;;;;;2.33;1.38;;;17.60;1.00;;;;;;4881205;29;20049;-52
2022/11/06 06:37:58;;;;;;;5.05;1.67;;;17.60;1.00;;;;;;4881097;29;20053;-49
2022/11/06 06:40:26;;;;;;;2.03;1.17;;;17.60;1.00;;;;;;4880804;29;20053;-51
2022/11/06 06:42:56;;;;;;;5.45;1.75;;;17.60;1.00;;;;;;4881069;29;20496;-50
2022/11/06 06:45:24;;;;;;;2.90;1.80;;;17.60;1.00;;;;;;4880945;29;20052;-48
2022/11/06 06:47:51;;;;;;;3.75;1.80;;;17.50;1.00;;;;;;4880914;29;20052;-49
2022/11/06 06:50:19;;;;;;;3.97;1.60;;;17.60;1.00;;;;;;4880384;29;20080;-51
2022/11/06 06:52:46;;;;;;;4.72;1.98;;;17.50;1.00;;;;;;4880837;29;20044;-47
2022/11/06 06:55:13;;;;;;;3.00;1.60;;;17.50;1.00;;;;;;4881131;29;20119;-50
2022/11/06 06:57:40;;;;;;;4.18;1.60;;;17.50;1.00;;;;;;4881041;29;20041;-49
2022/11/06 07:00:07;;;;;;;4.68;2.58;;;17.50;1.00;;;;;;4880690;29;20052;-49
2022/11/06 07:02:34;;;;;;;6.28;1.50;;;17.50;1.00;;;;;;4880708;29;20076;-52
2022/11/06 07:05:01;;;;;;;2.47;1.40;;;17.50;1.00;;;;;;4880199;29;20045;-50
2022/11/06 07:07:27;;;;;;;2.65;1.55;;;17.50;1.00;;;;;;4862169;29;20046;-49
2022/11/06 07:09:54;;;;;;;2.40;1.15;;;17.50;1.00;;;;;;4857084;29;20050;-49
2022/11/06 07:12:21;;;;;;;3.88;1.60;;;17.50;1.00;;;;;;4855324;29;20045;-49
2022/11/06 07:14:48;;;;;;;2.95;1.20;;;17.50;1.00;;;;;;4854059;29;20491;-50
2022/11/06 07:17:15;;;;;;;2.50;1.63;;;17.50;1.00;;;;;;4853479;29;20455;-48
2022/11/06 07:19:42;;;;;;;1.80;1.20;;;17.50;1.00;;;;;;4856700;29;20689;-49
2022/11/06 07:22:09;;;;;;;7.22;1.63;;;17.50;1.00;;;;;;4855557;29;20045;-50
2022/11/06 07:24:36;;;;;;;2.30;1.70;;;17.50;1.00;;;;;;4858054;29;20564;-51
2022/11/06 07:27:03;;;;;;;4.13;1.85;;;17.50;1.00;;;;;;4861622;29;20052;-47
2022/11/06 07:29:30;;;;;;;3.22;1.55;;;17.40;1.00;;;;;;4857293;29;20053;-51
2022/11/06 07:31:57;;;;;;;6.40;2.17;;;17.50;1.00;;;;;;4854315;29;20060;-50
2022/11/06 07:34:24;;;;;;;3.97;2.15;;;17.50;1.00;;;;;;4860404;29;20045;-52
2022/11/06 07:36:51;;;;;;;3.97;1.80;;;17.50;1.00;;;;;;4855498;29;20056;-53
2022/11/06 07:39:18;;;;;;;4.40;1.45;;;17.50;1.00;;;;;;4853114;29;20053;-50
2022/11/06 07:41:45;;;;;;;2.63;1.83;;;17.50;1.00;;;;;;4857018;29;20389;-48
2022/11/06 07:44:12;;;;;;;2.00;1.52;;;17.40;1.00;;;;;;4858889;29;20488;-49
2022/11/06 07:46:39;;;;;;;4.13;2.25;;;17.50;1.00;;;;;;4857742;29;20045;-50
2022/11/06 07:49:05;;;;;;;3.80;1.65;;;17.40;1.00;;;;;;4858925;29;20049;-49
2022/11/06 07:51:32;;;;;;;6.57;1.75;;;17.40;1.00;;;;;;4856326;29;20037;-50
2022/11/06 07:53:59;;;;;;;4.05;1.42;;;17.40;1.00;;;;;;4859504;29;20484;-51
2022/11/06 07:56:26;;;;;;;3.05;1.80;;;17.40;1.00;;;;;;4858622;29;20109;-53
2022/11/06 07:58:53;;;;;;;2.78;1.65;;;17.40;1.00;;;;;;4860229;29;20038;-52
2022/11/06 08:01:19;;;;;;;3.58;2.15;;;17.40;1.00;;;;;;4842545;29;20050;-50
2022/11/06 08:03:47;;;;;;;6.70;2.15;;;17.40;1.00;;;;;;4842043;29;20081;-51
2022/11/06 08:06:13;;;;;;;4.72;2.33;;;17.40;1.00;;;;;;4859620;29;20418;-53
2022/11/06 08:08:40;;;;;;;3.95;2.13;;;17.40;1.00;;;;;;4879374;29;20379;-49
2022/11/06 08:11:09;;;;;;;8.93;2.15;;;17.40;1.00;;;;;;4879692;29;20047;-51
2022/11/06 08:13:37;;;;;;;5.45;2.10;;;17.40;1.00;;;;;;4879393;29;20065;-51
2022/11/06 08:16:12;;;;;;;5.22;1.80;;;17.40;1.00;;;;;;4879516;29;20041;-53
2022/11/06 08:18:40;;;;;;;7.82;2.42;;;17.40;1.00;;;;;;4879404;29;20495;-50
2022/11/06 08:21:07;;;;;;;10.15;1.85;;;17.40;1.00;;;;;;4846346;29;20054;-50
2022/11/06 08:23:34;;;;;;;5.35;2.20;;;17.30;1.00;;;;;;4856330;29;20049;-52
2022/11/06 08:26:03;;;;;;;5.30;2.13;;;17.30;1.00;;;;;;4860372;29;20495;-49
2022/11/06 08:28:30;;;;;;;5.55;2.50;;;17.40;1.00;;;;;;4861552;29;20045;-51
2022/11/06 08:30:56;;;;;;;2.85;2.28;;;17.40;1.00;;;;;;4863575;29;20052;-51
2022/11/06 08:33:23;;;;;;;7.78;2.15;;;17.30;1.00;;;;;;4870315;29;20069;-49
2022/11/06 08:35:50;;;;;;;2.80;1.75;;;17.30;1.00;;;;;;4878969;29;20085;-52
2022/11/06 08:38:18;;;;;;;5.90;1.70;;;17.30;1.00;;;;;;4865403;29;20120;-50
2022/11/06 08:40:44;;;;;;;4.10;1.83;;;17.30;1.00;;;;;;4855134;29;20045;-50
2022/11/06 08:43:19;;;;;;;4.70;2.15;;;17.30;1.00;;;;;;4851874;29;20049;-49
2022/11/06 08:45:46;;;;;;;6.47;2.30;;;17.30;1.00;;;;;;4848377;29;20053;-52
2022/11/06 08:48:13;;;;;;;4.00;1.98;;;17.30;1.00;;;;;;4867679;29;20551;-49
2022/11/06 08:50:40;;;;;;;3.17;1.92;;;17.30;1.00;;;;;;4862415;29;20061;-51
2022/11/06 08:53:08;;;;;;;12.15;3.38;;;17.30;1.00;;;;;;4879540;29;20105;-52
2022/11/06 08:55:36;;;;;;;4.75;1.83;;;17.30;1.00;;;;;;4873400;29;20053;-50
2022/11/06 08:58:05;;;;;;;5.10;1.92;;;17.30;1.00;;;;;;4860636;29;20045;-51
2022/11/06 09:00:33;;;;;;;3.88;1.42;;;17.30;1.00;;;;;;4860162;29;20114;-51
2022/11/06 09:03:01;;;;;;;2.80;1.60;;;17.30;1.00;;;;;;4860698;29;20049;-48
2022/11/06 09:05:29;;;;;;;3.60;2.03;;;17.30;1.00;;;;;;4873793;29;20041;-51
2022/11/06 09:07:57;;;;;;;4.05;1.67;;;17.30;1.00;;;;;;4860503;29;20048;-49
2022/11/06 09:10:25;;;;;;;4.15;1.30;;;17.30;1.00;;;;;;4859538;29;20090;-52
2022/11/06 09:12:52;;;;;;;3.67;1.70;;;17.30;1.00;;;;;;4860515;29;20080;-52
2022/11/06 09:15:19;;;;;;;2.20;1.95;;;17.30;1.00;;;;;;4860657;29;20052;-51
2022/11/06 09:17:48;;;;;;;3.85;1.75;;;17.30;1.00;;;;;;4860736;29;20038;-47
2022/11/06 09:20:17;;;;;;;4.30;1.77;;;17.30;1.00;;;;;;4872192;29;20526;-48
2022/11/06 09:22:45;;;;;;;2.42;1.52;;;17.30;1.00;;;;;;4873284;29;20045;-48
2022/11/06 09:25:13;;;;;;;3.83;2.00;;;17.30;1.00;;;;;;4860562;29;20491;-51
2022/11/06 09:27:51;;;;;;;3.03;1.55;;;17.30;1.00;;;;;;4871618;29;20045;-51
2022/11/06 09:30:27;;;;;;;3.78;1.33;;;17.30;1.00;;;;;;4862337;29;20084;-53
2022/11/06 09:32:59;;;;;;;5.88;1.40;;;17.30;1.00;;;;;;4862458;29;20041;-51
2022/11/06 09:35:28;;;;;;;2.65;1.58;;;17.30;1.00;;;;;;4881371;29;20052;-49
2022/11/06 09:38:03;;;;;;;2.58;1.63;;;17.30;1.00;;;;;;4882218;29;20555;-50
2022/11/06 09:40:34;;;;;;;2.13;1.33;;;17.20;1.00;;;;;;4881599;29;20041;-50
2022/11/06 09:43:11;;;;;;;2.30;1.30;;;17.20;1.00;;;;;;4867341;29;20046;-50
2022/11/06 09:45:40;;;;;;;3.08;1.55;;;17.20;1.00;;;;;;4863426;29;20048;-52
2022/11/06 09:48:09;;;;;;;2.50;1.67;;;17.20;1.00;;;;;;4863542;29;20038;-51
2022/11/06 09:51:11;;;;;;;3.90;1.73;;;17.20;1.00;;;;;;4862961;29;20049;-50
2022/11/06 09:53:49;;;;;;;4.40;1.88;;;17.20;1.00;;;;;;4841216;29;20456;-52
2022/11/06 09:56:19;;;;;;;3.47;1.33;;;17.20;1.00;;;;;;4876812;29;20041;-49
2022/11/06 09:58:47;;;;;;;1.65;1.27;;;17.20;1.00;;;;;;4877048;29;20041;-48
2022/11/06 10:01:26;;;;;;;2.70;1.05;;;17.20;1.00;;;;;;4863039;29;20110;-50
2022/11/06 10:04:01;;;;;;;4.38;1.52;;;17.20;1.00;;;;;;4863348;29;20431;-49
2022/11/06 10:06:29;;;;;;;2.45;1.40;;;17.20;1.00;;;;;;4863220;29;20046;-51
2022/11/06 10:08:59;;;;;;;1.70;1.10;;;17.20;1.00;;;;;;4862690;29;20049;-51
2022/11/06 10:11:58;;;;;;;3.03;1.40;;;17.20;1.00;;;;;;4862726;29;20056;-50
2022/11/06 10:14:46;;;;;;;3.08;1.23;;;17.20;1.00;;;;;;4843772;29;20062;-50
2022/11/06 10:17:34;;;;;;;2.20;1.20;;;17.20;1.00;;;;;;4851216;29;20512;-48
2022/11/06 10:20:15;;;;;;;2.65;1.40;;;17.20;1.00;;;;;;4855586;29;20041;-49
2022/11/06 10:23:17;;;;;;;2.92;1.40;;;17.20;1.00;;;;;;4853010;29;20054;-48
2022/11/06 10:25:59;;;;;;;1.98;1.23;;;17.20;1.00;;;;;;4857814;29;20064;-50
2022/11/06 10:28:44;;;;;;;2.10;1.10;;;17.20;1.00;;;;;;4862231;29;20059;-50
2022/11/06 10:31:50;;;;;;;3.83;1.42;;;17.20;1.00;;;;;;4862197;29;20500;-47
2022/11/06 10:34:28;;;;;;;2.20;1.10;;;17.20;1.00;;;;;;4875489;29;20057;-51
2022/11/06 10:37:11;;;;;;;4.70;1.23;;;17.20;1.00;;;;;;4880838;29;20041;-50
2022/11/06 10:39:39;;;;;;;1.83;1.20;;;17.20;1.00;;;;;;4880758;29;20053;-46
2022/11/06 10:42:13;;;;;;;3.42;1.60;;;17.20;1.00;;;;;;4880740;29;20073;-49
2022/11/06 10:44:46;;;;;;;1.88;1.17;;;17.20;1.00;;;;;;4864667;29;20053;-47
2022/11/06 10:47:26;;;;;;;9.18;2.22;;;17.20;1.00;;;;;;4860552;29;20049;-48
2022/11/06 10:49:56;;;;;;;2.80;1.45;;;17.20;1.00;;;;;;4862227;29;20049;-50
2022/11/06 10:52:58;;;;;;;2.60;1.00;;;17.20;1.00;;;;;;4862364;29;20124;-50
2022/11/06 10:55:31;;;;;;;3.90;1.77;;;17.20;1.00;;;;;;4863578;29;20051;-50
2022/11/06 10:58:12;;;;;;;2.97;1.17;;;17.20;1.00;;;;;;4880807;29;20054;-48
2022/11/06 11:00:40;;;;;;;2.35;1.15;;;17.20;1.00;;;;;;4880247;29;20132;-49
2022/11/06 11:03:27;;;;;;;1.83;1.02;;;17.20;1.00;;;;;;4853498;29;20496;-49
2022/11/06 11:05:54;;;;;;;5.75;1.35;;;17.20;1.00;;;;;;4855544;29;20045;-50
2022/11/06 11:08:31;;;;;;;3.10;1.23;;;17.20;1.00;;;;;;4861786;29;20158;-50
2022/11/06 11:11:14;;;;;;;5.60;1.15;;;17.20;1.00;;;;;;4861812;29;20045;-51
2022/11/06 11:14:01;;;;;;;2.13;1.02;;;17.20;1.00;;;;;;4861921;29;20045;-47
2022/11/06 11:16:33;;;;;;;6.65;1.63;;;17.20;1.00;;;;;;4862178;29;20081;-52
2022/11/06 11:19:33;;;;;;;3.45;1.45;;;17.20;1.00;;;;;;4852527;29;20403;-48
2022/11/06 11:22:15;;;;;;;3.08;1.20;;;17.20;1.00;;;;;;4833664;29;20058;-47
2022/11/06 11:24:59;;;;;;;4.05;1.40;;;17.10;1.00;;;;;;4853148;29;20045;-50
2022/11/06 11:27:47;;;;;;;2.35;1.08;;;17.10;1.00;;;;;;4853068;29;20045;-49
2022/11/06 11:30:25;;;;;;;8.68;1.70;;;17.20;1.00;;;;;;4858215;29;20097;-48
2022/11/06 11:32:53;;;;;;;5.50;1.58;;;17.10;1.00;;;;;;4865534;29;20069;-51
2022/11/06 11:35:28;;;;;;;2.42;1.20;;;17.10;1.00;;;;;;4880156;29;20053;-47
2022/11/06 11:38:08;;;;;;;3.15;1.17;;;17.10;1.00;;;;;;4844449;29;20041;-53
2022/11/06 11:40:37;;;;;;;2.05;0.90;;;17.10;1.00;;;;;;4875469;29;20049;-47
2022/11/06 11:43:24;;;;;;;2.42;1.38;;;17.20;1.00;;;;;;4861138;29;20101;-49
2022/11/06 11:46:09;;;;;;;5.25;1.80;;;17.10;1.00;;;;;;4861280;29;20534;-49
2022/11/06 11:48:42;;;;;;;3.65;1.45;;;17.20;1.00;;;;;;4860875;29;20088;-50
2022/11/06 11:51:25;;;;;;;3.35;1.63;;;17.10;1.00;;;;;;4860828;29;20102;-48
2022/11/06 11:53:56;;;;;;;6.10;2.20;;;17.10;1.00;;;;;;4861370;29;20049;-48
2022/11/06 11:56:25;;;;;;;2.35;1.35;;;17.10;1.00;;;;;;4874709;29;20055;-51
2022/11/06 11:59:17;;;;;;;4.00;0.95;;;17.10;1.00;;;;;;4879494;29;20060;-50
2022/11/06 12:01:46;;;;;;;3.67;1.30;;;17.10;1.00;;;;;;4879926;29;20053;-50
2022/11/06 12:04:25;;;;;;;1.52;1.02;;;17.10;1.00;;;;;;4879844;29;20048;-51
2022/11/06 12:07:05;;;;;;;4.05;1.13;;;17.10;1.00;;;;;;4879675;29;20045;-49
2022/11/06 12:09:42;;;;;;;3.85;1.60;;;17.10;1.00;;;;;;4879162;29;20052;-50
2022/11/06 12:12:38;;;;;;;5.20;1.50;;;17.10;1.00;;;;;;4879580;29;20392;-50
2022/11/06 12:15:11;;;;;;;2.92;1.30;;;17.10;1.00;;;;;;4871543;29;20064;-51
2022/11/06 12:17:40;;;;;;;7.13;1.00;;;17.10;1.00;;;;;;4878986;29;20521;-49
2022/11/06 12:20:14;;;;;;;1.92;1.50;;;17.10;1.00;;;;;;4879156;29;20044;-48
2022/11/06 12:22:44;;;;;;;2.33;1.27;;;17.20;1.00;;;;;;4879681;29;20053;-49
2022/11/06 12:25:21;;;;;;;1.90;1.30;;;17.10;1.00;;;;;;4877526;29;20092;-48
2022/11/06 12:27:55;;;;;;;3.15;1.40;;;17.10;1.00;;;;;;4860946;29;20052;-47
2022/11/06 12:30:22;;;;;;;4.45;1.90;;;17.10;1.00;;;;;;4860135;29;20042;-49
2022/11/06 12:33:02;;;;;;;2.08;1.10;;;17.10;1.00;;;;;;4864165;29;20049;-49
2022/11/06 12:35:28;;;;;;;3.80;1.25;;;17.10;1.00;;;;;;4879413;29;20111;-50
2022/11/06 12:38:13;;;;;;;1.80;1.27;;;17.10;1.00;;;;;;4879285;29;20073;-51
2022/11/06 12:40:54;;;;;;;4.70;1.45;;;17.10;1.00;;;;;;4878821;29;20052;-50
2022/11/06 12:43:50;;;;;;;2.05;1.10;;;17.10;1.00;;;;;;4879504;29;20052;-49
2022/11/06 12:46:26;;;;;;;2.65;1.33;;;17.10;1.00;;;;;;4871167;29;20092;-52
2022/11/06 12:49:21;;;;;;;1.70;1.10;;;17.10;1.00;;;;;;4879117;29;20044;-54
2022/11/06 12:52:07;;;;;;;3.70;1.13;;;17.10;1.00;;;;;;4879455;29;20415;-46
2022/11/06 12:54:45;;;;;;;3.90;1.45;;;17.10;1.00;;;;;;4878906;29;20081;-49
2022/11/06 12:57:31;;;;;;;2.67;1.20;;;17.10;1.00;;;;;;4859456;29;20400;-51
2022/11/06 13:00:18;;;;;;;2.00;1.10;;;17.10;1.00;;;;;;4861397;29;20460;-46
2022/11/06 13:03:03;;;;;;;2.63;1.20;;;17.10;1.00;;;;;;4858246;29;20056;-48
2022/11/06 13:06:06;;;;;;;2.38;1.15;;;17.10;1.00;;;;;;4859378;29;20053;-51
2022/11/06 13:09:02;;;;;;;3.03;0.98;;;17.10;1.00;;;;;;4861723;29;20080;-49
2022/11/06 13:11:51;;;;;;;5.45;1.27;;;17.10;1.00;;;;;;4863856;29;20056;-47
2022/11/06 13:14:29;;;;;;;3.00;1.40;;;17.10;1.00;;;;;;4867011;29;20037;-48
2022/11/06 13:17:01;;;;;;;2.60;1.00;;;17.10;1.00;;;;;;4882549;29;20045;-46
2022/11/06 13:19:37;;;;;;;1.52;1.02;;;17.10;1.00;;;;;;4867730;29;20034;-51
2022/11/06 13:22:23;;;;;;;1.92;0.93;;;17.10;1.00;;;;;;4863024;29;20088;-47
2022/11/06 13:25:39;;;;;;;2.92;1.23;;;17.10;1.00;;;;;;4863606;29;20050;-49
2022/11/06 13:28:41;;;;;;;5.05;1.15;;;17.10;1.00;;;;;;4859860;29;20140;-48
2022/11/06 13:31:12;;;;;;;3.22;1.23;;;17.10;1.00;;;;;;4868248;29;20060;-50
2022/11/06 13:33:45;;;;;;;4.10;1.45;;;17.10;1.00;;;;;;4858776;29;20045;-48
2022/11/06 13:36:13;;;;;;;2.85;1.30;;;17.10;1.00;;;;;;4852464;29;20069;-48
2022/11/06 13:39:05;;;;;;;1.27;0.88;;;17.10;1.00;;;;;;4863503;29;20037;-47
2022/11/06 13:41:32;;;;;;;1.85;0.90;;;17.10;1.00;;;;;;4856384;29;20057;-48
2022/11/06 13:44:10;;;;;;;3.85;0.80;;;17.10;1.00;;;;;;4863525;29;20041;-49
2022/11/06 13:46:58;;;;;;;2.85;0.90;;;17.10;1.00;;;;;;4863533;29;20046;-51